sensor_id;sensor_type;location;lat;lon;timestamp;P1;durP1;ratioP1;P2;durP2;ratioP2
15946;SDS011;8072;52.554;7.966;2024-03-06T00:02:23;17.33;;;7.83;;
15946;SDS011;8072;52.554;7.966;2024-03-06T00:04:48;14.00;;;8.10;;
15946;SDS011;8072;52.554;7.966;2024-03-06T00:07:14;13.27;;;7.37;;
15946;SDS011;8072;52.554;7.966;2024-03-06T00:09:40;16.07;;;7.23;;
15946;SDS011;8072;52.554;7.966;2024-03-06T00:12:06;12.40;;;7.27;;
15946;SDS011;8072;52.554;7.966;2024-03-06T00:14:31;14.43;;;7.43;;
15946;SDS011;8072;52.554;7.966;2024-03-06T00:16:57;11.30;;;6.97;;
15946;SDS011;8072;52.554;7.966;2024-03-06T00:19:23;13.00;;;7.33;;
15946;SDS011;8072;52.554;7.966;2024-03-06T00:21:49;15.83;;;7.17;;
15946;SDS011;8072;52.554;7.966;2024-03-06T00:24:16;13.47;;;7.67;;
15946;SDS011;8072;52.554;7.966;2024-03-06T00:26:42;13.80;;;7.47;;
15946;SDS011;8072;52.554;7.966;2024-03-06T00:29:09;14.40;;;7.10;;
15946;SDS011;8072;52.554;7.966;2024-03-06T00:31:36;11.60;;;7.30;;
15946;SDS011;8072;52.554;7.966;2024-03-06T00:34:02;13.47;;;7.60;;
15946;SDS011;8072;52.554;7.966;2024-03-06T00:36:28;13.00;;;7.80;;
15946;SDS011;8072;52.554;7.966;2024-03-06T00:38:53;15.33;;;7.60;;
15946;SDS011;8072;52.554;7.966;2024-03-06T00:41:19;14.37;;;7.87;;
15946;SDS011;8072;52.554;7.966;2024-03-06T00:43:45;11.90;;;7.87;;
15946;SDS011;8072;52.554;7.966;2024-03-06T00:46:11;12.97;;;7.83;;
15946;SDS011;8072;52.554;7.966;2024-03-06T00:48:37;14.03;;;8.47;;
15946;SDS011;8072;52.554;7.966;2024-03-06T00:51:05;12.50;;;8.23;;
15946;SDS011;8072;52.554;7.966;2024-03-06T00:53:32;15.10;;;8.13;;
15946;SDS011;8072;52.554;7.966;2024-03-06T00:55:59;13.73;;;8.23;;
15946;SDS011;8072;52.554;7.966;2024-03-06T00:58:25;16.03;;;8.37;;
15946;SDS011;8072;52.554;7.966;2024-03-06T01:00:51;15.10;;;8.40;;
15946;SDS011;8072;52.554;7.966;2024-03-06T01:03:17;14.20;;;7.80;;
15946;SDS011;8072;52.554;7.966;2024-03-06T01:05:43;14.63;;;9.47;;
15946;SDS011;8072;52.554;7.966;2024-03-06T01:08:08;17.90;;;8.80;;
15946;SDS011;8072;52.554;7.966;2024-03-06T01:10:34;14.63;;;8.73;;
15946;SDS011;8072;52.554;7.966;2024-03-06T01:13:00;15.70;;;8.80;;
15946;SDS011;8072;52.554;7.966;2024-03-06T01:15:26;13.70;;;8.07;;
15946;SDS011;8072;52.554;7.966;2024-03-06T01:17:52;16.20;;;8.77;;
15946;SDS011;8072;52.554;7.966;2024-03-06T01:20:17;15.33;;;8.47;;
15946;SDS011;8072;52.554;7.966;2024-03-06T01:22:43;16.23;;;9.10;;
15946;SDS011;8072;52.554;7.966;2024-03-06T01:25:11;18.83;;;10.30;;
15946;SDS011;8072;52.554;7.966;2024-03-06T01:27:36;13.23;;;8.07;;
15946;SDS011;8072;52.554;7.966;2024-03-06T01:30:02;14.13;;;8.77;;
15946;SDS011;8072;52.554;7.966;2024-03-06T01:32:29;14.67;;;9.03;;
15946;SDS011;8072;52.554;7.966;2024-03-06T01:34:55;15.17;;;8.30;;
15946;SDS011;8072;52.554;7.966;2024-03-06T01:37:21;13.00;;;8.83;;
15946;SDS011;8072;52.554;7.966;2024-03-06T01:39:47;12.50;;;8.43;;
15946;SDS011;8072;52.554;7.966;2024-03-06T01:42:13;15.40;;;8.43;;
15946;SDS011;8072;52.554;7.966;2024-03-06T01:44:39;14.33;;;8.63;;
15946;SDS011;8072;52.554;7.966;2024-03-06T01:47:04;16.37;;;9.90;;
15946;SDS011;8072;52.554;7.966;2024-03-06T01:49:31;14.70;;;9.43;;
15946;SDS011;8072;52.554;7.966;2024-03-06T01:51:57;17.63;;;9.50;;
15946;SDS011;8072;52.554;7.966;2024-03-06T01:54:24;16.57;;;9.53;;
15946;SDS011;8072;52.554;7.966;2024-03-06T01:56:51;14.87;;;9.27;;
15946;SDS011;8072;52.554;7.966;2024-03-06T01:59:18;13.53;;;8.77;;
15946;SDS011;8072;52.554;7.966;2024-03-06T02:01:46;15.27;;;9.10;;
15946;SDS011;8072;52.554;7.966;2024-03-06T02:04:12;16.30;;;9.93;;
15946;SDS011;8072;52.554;7.966;2024-03-06T02:06:39;16.83;;;10.17;;
15946;SDS011;8072;52.554;7.966;2024-03-06T02:09:05;17.10;;;9.97;;
15946;SDS011;8072;52.554;7.966;2024-03-06T02:11:32;17.20;;;9.70;;
15946;SDS011;8072;52.554;7.966;2024-03-06T02:13:58;15.07;;;8.83;;
15946;SDS011;8072;52.554;7.966;2024-03-06T02:16:24;15.93;;;9.53;;
15946;SDS011;8072;52.554;7.966;2024-03-06T02:18:54;18.70;;;10.27;;
15946;SDS011;8072;52.554;7.966;2024-03-06T02:21:22;14.90;;;9.33;;
15946;SDS011;8072;52.554;7.966;2024-03-06T02:23:48;19.30;;;10.43;;
15946;SDS011;8072;52.554;7.966;2024-03-06T02:26:18;17.43;;;10.00;;
15946;SDS011;8072;52.554;7.966;2024-03-06T02:28:47;16.93;;;9.87;;
15946;SDS011;8072;52.554;7.966;2024-03-06T02:31:17;14.10;;;9.43;;
15946;SDS011;8072;52.554;7.966;2024-03-06T02:33:43;14.60;;;9.40;;
15946;SDS011;8072;52.554;7.966;2024-03-06T02:36:18;13.30;;;9.27;;
15946;SDS011;8072;52.554;7.966;2024-03-06T02:38:47;15.40;;;9.97;;
15946;SDS011;8072;52.554;7.966;2024-03-06T02:41:14;17.97;;;9.63;;
15946;SDS011;8072;52.554;7.966;2024-03-06T02:43:41;17.60;;;10.17;;
15946;SDS011;8072;52.554;7.966;2024-03-06T02:46:08;15.20;;;9.73;;
15946;SDS011;8072;52.554;7.966;2024-03-06T02:48:33;15.10;;;9.50;;
15946;SDS011;8072;52.554;7.966;2024-03-06T02:50:59;20.00;;;11.00;;
15946;SDS011;8072;52.554;7.966;2024-03-06T02:53:25;16.47;;;10.00;;
15946;SDS011;8072;52.554;7.966;2024-03-06T02:55:51;17.27;;;10.23;;
15946;SDS011;8072;52.554;7.966;2024-03-06T02:58:17;16.40;;;10.13;;
15946;SDS011;8072;52.554;7.966;2024-03-06T03:00:43;17.83;;;10.13;;
15946;SDS011;8072;52.554;7.966;2024-03-06T03:03:09;16.00;;;10.13;;
15946;SDS011;8072;52.554;7.966;2024-03-06T03:05:41;22.10;;;11.73;;
15946;SDS011;8072;52.554;7.966;2024-03-06T03:08:06;19.33;;;10.63;;
15946;SDS011;8072;52.554;7.966;2024-03-06T03:10:33;22.30;;;11.27;;
15946;SDS011;8072;52.554;7.966;2024-03-06T03:13:01;18.53;;;11.30;;
15946;SDS011;8072;52.554;7.966;2024-03-06T03:15:27;18.27;;;11.70;;
15946;SDS011;8072;52.554;7.966;2024-03-06T03:17:53;23.93;;;12.47;;
15946;SDS011;8072;52.554;7.966;2024-03-06T03:20:19;20.87;;;12.43;;
15946;SDS011;8072;52.554;7.966;2024-03-06T03:22:46;22.80;;;13.60;;
15946;SDS011;8072;52.554;7.966;2024-03-06T03:25:12;23.07;;;13.53;;
15946;SDS011;8072;52.554;7.966;2024-03-06T03:27:41;18.27;;;12.37;;
15946;SDS011;8072;52.554;7.966;2024-03-06T03:30:11;21.40;;;12.80;;
15946;SDS011;8072;52.554;7.966;2024-03-06T03:32:37;21.17;;;11.77;;
15946;SDS011;8072;52.554;7.966;2024-03-06T03:35:04;23.73;;;13.17;;
15946;SDS011;8072;52.554;7.966;2024-03-06T03:37:30;22.80;;;11.93;;
15946;SDS011;8072;52.554;7.966;2024-03-06T03:39:56;20.03;;;10.60;;
15946;SDS011;8072;52.554;7.966;2024-03-06T03:42:22;19.00;;;11.27;;
15946;SDS011;8072;52.554;7.966;2024-03-06T03:44:48;24.50;;;12.40;;
15946;SDS011;8072;52.554;7.966;2024-03-06T03:47:14;21.83;;;12.17;;
15946;SDS011;8072;52.554;7.966;2024-03-06T03:49:40;20.20;;;12.10;;
15946;SDS011;8072;52.554;7.966;2024-03-06T03:52:06;19.00;;;11.93;;
15946;SDS011;8072;52.554;7.966;2024-03-06T03:54:32;19.30;;;12.27;;
15946;SDS011;8072;52.554;7.966;2024-03-06T03:56:58;23.33;;;12.50;;
15946;SDS011;8072;52.554;7.966;2024-03-06T03:59:24;25.00;;;12.03;;
15946;SDS011;8072;52.554;7.966;2024-03-06T04:01:51;21.33;;;12.63;;
15946;SDS011;8072;52.554;7.966;2024-03-06T04:04:18;19.97;;;12.27;;
15946;SDS011;8072;52.554;7.966;2024-03-06T04:06:44;20.47;;;12.00;;
15946;SDS011;8072;52.554;7.966;2024-03-06T04:09:10;23.47;;;12.70;;
15946;SDS011;8072;52.554;7.966;2024-03-06T04:11:37;20.87;;;11.37;;
15946;SDS011;8072;52.554;7.966;2024-03-06T04:14:03;19.50;;;12.20;;
15946;SDS011;8072;52.554;7.966;2024-03-06T04:16:36;19.77;;;11.80;;
15946;SDS011;8072;52.554;7.966;2024-03-06T04:19:02;24.57;;;13.13;;
15946;SDS011;8072;52.554;7.966;2024-03-06T04:21:41;21.50;;;12.50;;
15946;SDS011;8072;52.554;7.966;2024-03-06T04:24:08;20.10;;;12.27;;
15946;SDS011;8072;52.554;7.966;2024-03-06T04:26:33;21.33;;;12.83;;
15946;SDS011;8072;52.554;7.966;2024-03-06T04:28:59;24.07;;;13.50;;
15946;SDS011;8072;52.554;7.966;2024-03-06T04:31:25;20.90;;;13.40;;
15946;SDS011;8072;52.554;7.966;2024-03-06T04:33:51;24.50;;;13.50;;
15946;SDS011;8072;52.554;7.966;2024-03-06T04:36:16;23.27;;;13.00;;
15946;SDS011;8072;52.554;7.966;2024-03-06T04:38:42;27.23;;;13.63;;
15946;SDS011;8072;52.554;7.966;2024-03-06T04:41:08;25.87;;;14.43;;
15946;SDS011;8072;52.554;7.966;2024-03-06T04:43:35;26.27;;;13.00;;
15946;SDS011;8072;52.554;7.966;2024-03-06T04:46:01;21.87;;;13.67;;
15946;SDS011;8072;52.554;7.966;2024-03-06T04:48:27;22.63;;;14.00;;
15946;SDS011;8072;52.554;7.966;2024-03-06T04:50:53;20.07;;;12.20;;
15946;SDS011;8072;52.554;7.966;2024-03-06T04:53:19;22.63;;;13.10;;
15946;SDS011;8072;52.554;7.966;2024-03-06T04:55:48;22.60;;;13.97;;
15946;SDS011;8072;52.554;7.966;2024-03-06T04:58:13;24.03;;;12.60;;
15946;SDS011;8072;52.554;7.966;2024-03-06T05:00:39;23.07;;;13.17;;
15946;SDS011;8072;52.554;7.966;2024-03-06T05:03:05;22.60;;;12.47;;
15946;SDS011;8072;52.554;7.966;2024-03-06T05:05:30;22.23;;;13.53;;
15946;SDS011;8072;52.554;7.966;2024-03-06T05:07:57;21.40;;;12.90;;
15946;SDS011;8072;52.554;7.966;2024-03-06T05:10:23;22.57;;;12.87;;
15946;SDS011;8072;52.554;7.966;2024-03-06T05:12:48;19.60;;;12.47;;
15946;SDS011;8072;52.554;7.966;2024-03-06T05:15:15;27.17;;;13.90;;
15946;SDS011;8072;52.554;7.966;2024-03-06T05:17:41;21.47;;;12.40;;
15946;SDS011;8072;52.554;7.966;2024-03-06T05:20:07;23.00;;;13.63;;
15946;SDS011;8072;52.554;7.966;2024-03-06T05:22:33;23.53;;;12.90;;
15946;SDS011;8072;52.554;7.966;2024-03-06T05:24:59;23.27;;;13.43;;
15946;SDS011;8072;52.554;7.966;2024-03-06T05:27:24;20.00;;;12.60;;
15946;SDS011;8072;52.554;7.966;2024-03-06T05:29:51;25.90;;;13.83;;
15946;SDS011;8072;52.554;7.966;2024-03-06T05:32:17;20.10;;;12.07;;
15946;SDS011;8072;52.554;7.966;2024-03-06T05:34:43;21.90;;;12.87;;
15946;SDS011;8072;52.554;7.966;2024-03-06T05:37:09;23.83;;;12.90;;
15946;SDS011;8072;52.554;7.966;2024-03-06T05:39:35;22.07;;;12.33;;
15946;SDS011;8072;52.554;7.966;2024-03-06T05:42:02;26.73;;;14.57;;
15946;SDS011;8072;52.554;7.966;2024-03-06T05:44:29;20.80;;;13.10;;
15946;SDS011;8072;52.554;7.966;2024-03-06T05:46:57;24.77;;;12.77;;
15946;SDS011;8072;52.554;7.966;2024-03-06T05:49:23;29.33;;;13.17;;
15946;SDS011;8072;52.554;7.966;2024-03-06T05:51:51;24.60;;;13.53;;
15946;SDS011;8072;52.554;7.966;2024-03-06T05:54:17;25.23;;;12.70;;
15946;SDS011;8072;52.554;7.966;2024-03-06T05:56:44;24.40;;;13.43;;
15946;SDS011;8072;52.554;7.966;2024-03-06T05:59:12;22.97;;;13.60;;
15946;SDS011;8072;52.554;7.966;2024-03-06T06:01:38;23.97;;;13.73;;
15946;SDS011;8072;52.554;7.966;2024-03-06T06:04:03;23.47;;;13.47;;
15946;SDS011;8072;52.554;7.966;2024-03-06T06:06:29;24.03;;;14.23;;
15946;SDS011;8072;52.554;7.966;2024-03-06T06:08:55;22.63;;;13.17;;
15946;SDS011;8072;52.554;7.966;2024-03-06T06:11:21;23.00;;;12.93;;
15946;SDS011;8072;52.554;7.966;2024-03-06T06:13:46;27.00;;;14.07;;
15946;SDS011;8072;52.554;7.966;2024-03-06T06:16:12;24.90;;;13.90;;
15946;SDS011;8072;52.554;7.966;2024-03-06T06:18:40;25.10;;;14.17;;
15946;SDS011;8072;52.554;7.966;2024-03-06T06:21:07;22.63;;;13.13;;
15946;SDS011;8072;52.554;7.966;2024-03-06T06:23:33;23.33;;;12.60;;
15946;SDS011;8072;52.554;7.966;2024-03-06T06:26:01;25.83;;;13.00;;
15946;SDS011;8072;52.554;7.966;2024-03-06T06:28:27;26.90;;;13.73;;
15946;SDS011;8072;52.554;7.966;2024-03-06T06:30:53;25.43;;;14.27;;
15946;SDS011;8072;52.554;7.966;2024-03-06T06:33:19;22.90;;;13.03;;
15946;SDS011;8072;52.554;7.966;2024-03-06T06:35:46;23.60;;;14.00;;
15946;SDS011;8072;52.554;7.966;2024-03-06T06:38:13;20.47;;;12.50;;
15946;SDS011;8072;52.554;7.966;2024-03-06T06:40:38;22.67;;;12.73;;
15946;SDS011;8072;52.554;7.966;2024-03-06T06:43:06;26.70;;;14.43;;
15946;SDS011;8072;52.554;7.966;2024-03-06T06:45:31;24.40;;;13.30;;
15946;SDS011;8072;52.554;7.966;2024-03-06T06:47:57;22.23;;;12.87;;
15946;SDS011;8072;52.554;7.966;2024-03-06T06:50:23;28.10;;;14.00;;
15946;SDS011;8072;52.554;7.966;2024-03-06T06:52:51;25.23;;;14.60;;
15946;SDS011;8072;52.554;7.966;2024-03-06T06:55:17;23.90;;;14.37;;
15946;SDS011;8072;52.554;7.966;2024-03-06T06:57:43;26.93;;;14.87;;
15946;SDS011;8072;52.554;7.966;2024-03-06T07:00:09;29.10;;;15.07;;
15946;SDS011;8072;52.554;7.966;2024-03-06T07:02:39;26.83;;;13.97;;
15946;SDS011;8072;52.554;7.966;2024-03-06T07:05:06;24.87;;;13.67;;
15946;SDS011;8072;52.554;7.966;2024-03-06T07:07:33;23.37;;;13.73;;
15946;SDS011;8072;52.554;7.966;2024-03-06T07:09:59;27.87;;;14.67;;
15946;SDS011;8072;52.554;7.966;2024-03-06T07:12:24;26.23;;;13.43;;
15946;SDS011;8072;52.554;7.966;2024-03-06T07:14:50;24.50;;;13.53;;
15946;SDS011;8072;52.554;7.966;2024-03-06T07:17:16;24.80;;;14.00;;
15946;SDS011;8072;52.554;7.966;2024-03-06T07:19:41;23.63;;;13.80;;
15946;SDS011;8072;52.554;7.966;2024-03-06T07:22:07;25.77;;;13.67;;
15946;SDS011;8072;52.554;7.966;2024-03-06T07:24:33;29.33;;;14.50;;
15946;SDS011;8072;52.554;7.966;2024-03-06T07:26:59;22.93;;;13.33;;
15946;SDS011;8072;52.554;7.966;2024-03-06T07:29:26;27.60;;;14.60;;
15946;SDS011;8072;52.554;7.966;2024-03-06T07:31:53;24.07;;;13.63;;
15946;SDS011;8072;52.554;7.966;2024-03-06T07:34:19;27.33;;;14.27;;
15946;SDS011;8072;52.554;7.966;2024-03-06T07:36:46;24.27;;;13.73;;
15946;SDS011;8072;52.554;7.966;2024-03-06T07:39:12;26.43;;;13.67;;
15946;SDS011;8072;52.554;7.966;2024-03-06T07:41:42;27.50;;;14.33;;
15946;SDS011;8072;52.554;7.966;2024-03-06T07:44:08;27.17;;;13.77;;
15946;SDS011;8072;52.554;7.966;2024-03-06T07:46:34;23.93;;;13.40;;
15946;SDS011;8072;52.554;7.966;2024-03-06T07:49:00;23.53;;;13.97;;
15946;SDS011;8072;52.554;7.966;2024-03-06T07:51:28;29.27;;;14.63;;
15946;SDS011;8072;52.554;7.966;2024-03-06T07:53:57;26.30;;;14.53;;
15946;SDS011;8072;52.554;7.966;2024-03-06T07:56:23;26.47;;;14.00;;
15946;SDS011;8072;52.554;7.966;2024-03-06T07:58:50;25.80;;;13.73;;
15946;SDS011;8072;52.554;7.966;2024-03-06T08:01:16;27.43;;;14.20;;
15946;SDS011;8072;52.554;7.966;2024-03-06T08:03:42;28.17;;;15.17;;
15946;SDS011;8072;52.554;7.966;2024-03-06T08:06:11;30.83;;;14.47;;
15946;SDS011;8072;52.554;7.966;2024-03-06T08:08:36;27.80;;;15.63;;
15946;SDS011;8072;52.554;7.966;2024-03-06T08:11:06;26.83;;;14.43;;
15946;SDS011;8072;52.554;7.966;2024-03-06T08:13:32;30.37;;;15.10;;
15946;SDS011;8072;52.554;7.966;2024-03-06T08:15:58;29.17;;;14.67;;
15946;SDS011;8072;52.554;7.966;2024-03-06T08:18:24;30.60;;;14.63;;
15946;SDS011;8072;52.554;7.966;2024-03-06T08:20:50;30.33;;;15.60;;
15946;SDS011;8072;52.554;7.966;2024-03-06T08:23:15;26.10;;;14.20;;
15946;SDS011;8072;52.554;7.966;2024-03-06T08:25:41;31.67;;;16.10;;
15946;SDS011;8072;52.554;7.966;2024-03-06T08:28:07;28.17;;;15.50;;
15946;SDS011;8072;52.554;7.966;2024-03-06T08:30:32;29.47;;;16.20;;
15946;SDS011;8072;52.554;7.966;2024-03-06T08:32:58;30.30;;;15.57;;
15946;SDS011;8072;52.554;7.966;2024-03-06T08:35:24;29.03;;;15.37;;
15946;SDS011;8072;52.554;7.966;2024-03-06T08:37:50;30.87;;;15.03;;
15946;SDS011;8072;52.554;7.966;2024-03-06T08:40:16;26.83;;;13.40;;
15946;SDS011;8072;52.554;7.966;2024-03-06T08:42:45;29.50;;;15.10;;
15946;SDS011;8072;52.554;7.966;2024-03-06T08:45:15;26.97;;;14.73;;
15946;SDS011;8072;52.554;7.966;2024-03-06T08:47:43;26.57;;;12.73;;
15946;SDS011;8072;52.554;7.966;2024-03-06T08:50:10;24.63;;;14.07;;
15946;SDS011;8072;52.554;7.966;2024-03-06T08:52:37;26.43;;;13.80;;
15946;SDS011;8072;52.554;7.966;2024-03-06T08:55:04;30.57;;;13.90;;
15946;SDS011;8072;52.554;7.966;2024-03-06T08:57:33;32.17;;;13.83;;
15946;SDS011;8072;52.554;7.966;2024-03-06T09:00:03;25.47;;;13.63;;
15946;SDS011;8072;52.554;7.966;2024-03-06T09:02:33;26.13;;;13.93;;
15946;SDS011;8072;52.554;7.966;2024-03-06T09:04:59;26.40;;;13.77;;
15946;SDS011;8072;52.554;7.966;2024-03-06T09:07:25;26.27;;;14.67;;
15946;SDS011;8072;52.554;7.966;2024-03-06T09:09:51;26.00;;;14.30;;
15946;SDS011;8072;52.554;7.966;2024-03-06T09:12:17;27.10;;;13.97;;
15946;SDS011;8072;52.554;7.966;2024-03-06T09:14:43;30.97;;;15.03;;
15946;SDS011;8072;52.554;7.966;2024-03-06T09:17:10;33.27;;;15.20;;
15946;SDS011;8072;52.554;7.966;2024-03-06T09:19:38;32.00;;;15.33;;
15946;SDS011;8072;52.554;7.966;2024-03-06T09:22:04;35.03;;;15.93;;
15946;SDS011;8072;52.554;7.966;2024-03-06T09:24:29;36.77;;;16.63;;
15946;SDS011;8072;52.554;7.966;2024-03-06T09:26:55;31.07;;;15.47;;
15946;SDS011;8072;52.554;7.966;2024-03-06T09:29:21;39.07;;;17.23;;
15946;SDS011;8072;52.554;7.966;2024-03-06T09:31:47;31.80;;;15.23;;
15946;SDS011;8072;52.554;7.966;2024-03-06T09:34:13;37.43;;;16.63;;
15946;SDS011;8072;52.554;7.966;2024-03-06T09:36:46;31.17;;;15.10;;
15946;SDS011;8072;52.554;7.966;2024-03-06T09:39:14;29.87;;;15.47;;
15946;SDS011;8072;52.554;7.966;2024-03-06T09:41:48;31.63;;;15.73;;
15946;SDS011;8072;52.554;7.966;2024-03-06T09:44:15;31.67;;;14.90;;
15946;SDS011;8072;52.554;7.966;2024-03-06T09:46:45;31.33;;;15.50;;
15946;SDS011;8072;52.554;7.966;2024-03-06T09:49:13;36.80;;;16.27;;
15946;SDS011;8072;52.554;7.966;2024-03-06T09:51:44;38.57;;;16.97;;
15946;SDS011;8072;52.554;7.966;2024-03-06T09:54:11;39.80;;;17.20;;
15946;SDS011;8072;52.554;7.966;2024-03-06T09:56:40;39.60;;;17.20;;
15946;SDS011;8072;52.554;7.966;2024-03-06T09:59:10;40.00;;;18.37;;
15946;SDS011;8072;52.554;7.966;2024-03-06T10:01:39;40.23;;;17.50;;
15946;SDS011;8072;52.554;7.966;2024-03-06T10:04:20;49.83;;;19.17;;
15946;SDS011;8072;52.554;7.966;2024-03-06T10:06:47;45.00;;;18.67;;
15946;SDS011;8072;52.554;7.966;2024-03-06T10:09:18;39.60;;;18.23;;
15946;SDS011;8072;52.554;7.966;2024-03-06T10:11:44;44.90;;;20.10;;
15946;SDS011;8072;52.554;7.966;2024-03-06T10:14:10;38.77;;;18.00;;
15946;SDS011;8072;52.554;7.966;2024-03-06T10:16:37;43.53;;;17.83;;
15946;SDS011;8072;52.554;7.966;2024-03-06T10:19:16;41.73;;;18.77;;
15946;SDS011;8072;52.554;7.966;2024-03-06T10:21:43;45.17;;;19.03;;
15946;SDS011;8072;52.554;7.966;2024-03-06T10:24:16;44.40;;;19.23;;
15946;SDS011;8072;52.554;7.966;2024-03-06T10:26:54;39.70;;;18.53;;
15946;SDS011;8072;52.554;7.966;2024-03-06T10:29:23;34.73;;;16.87;;
15946;SDS011;8072;52.554;7.966;2024-03-06T10:31:53;40.57;;;17.57;;
15946;SDS011;8072;52.554;7.966;2024-03-06T10:34:26;37.67;;;17.90;;
15946;SDS011;8072;52.554;7.966;2024-03-06T10:36:54;48.10;;;18.33;;
15946;SDS011;8072;52.554;7.966;2024-03-06T10:39:20;42.10;;;18.47;;
15946;SDS011;8072;52.554;7.966;2024-03-06T10:41:54;37.57;;;16.70;;
15946;SDS011;8072;52.554;7.966;2024-03-06T10:44:22;42.63;;;18.60;;
15946;SDS011;8072;52.554;7.966;2024-03-06T10:46:51;37.90;;;18.20;;
15946;SDS011;8072;52.554;7.966;2024-03-06T10:49:23;42.97;;;18.23;;
15946;SDS011;8072;52.554;7.966;2024-03-06T10:51:51;43.27;;;18.13;;
15946;SDS011;8072;52.554;7.966;2024-03-06T10:54:18;39.27;;;17.73;;
15946;SDS011;8072;52.554;7.966;2024-03-06T10:56:46;41.33;;;17.47;;
15946;SDS011;8072;52.554;7.966;2024-03-06T10:59:12;40.53;;;18.20;;
15946;SDS011;8072;52.554;7.966;2024-03-06T11:01:40;39.17;;;17.37;;
15946;SDS011;8072;52.554;7.966;2024-03-06T11:04:09;40.80;;;18.77;;
15946;SDS011;8072;52.554;7.966;2024-03-06T11:06:36;45.30;;;19.13;;
15946;SDS011;8072;52.554;7.966;2024-03-06T11:09:03;43.77;;;19.17;;
15946;SDS011;8072;52.554;7.966;2024-03-06T11:11:29;35.23;;;18.53;;
15946;SDS011;8072;52.554;7.966;2024-03-06T11:14:03;41.97;;;18.77;;
15946;SDS011;8072;52.554;7.966;2024-03-06T11:16:33;36.63;;;17.63;;
15946;SDS011;8072;52.554;7.966;2024-03-06T11:19:24;37.93;;;17.67;;
15946;SDS011;8072;52.554;7.966;2024-03-06T11:21:49;35.87;;;17.43;;
15946;SDS011;8072;52.554;7.966;2024-03-06T11:24:19;37.53;;;17.07;;
15946;SDS011;8072;52.554;7.966;2024-03-06T11:26:48;40.43;;;18.43;;
15946;SDS011;8072;52.554;7.966;2024-03-06T11:29:18;38.93;;;17.50;;
15946;SDS011;8072;52.554;7.966;2024-03-06T11:32:00;42.20;;;18.47;;
15946;SDS011;8072;52.554;7.966;2024-03-06T11:34:32;46.17;;;18.73;;
15946;SDS011;8072;52.554;7.966;2024-03-06T11:37:02;39.33;;;17.13;;
15946;SDS011;8072;52.554;7.966;2024-03-06T11:39:32;36.40;;;17.40;;
15946;SDS011;8072;52.554;7.966;2024-03-06T11:42:02;36.80;;;17.27;;
15946;SDS011;8072;52.554;7.966;2024-03-06T11:44:31;40.27;;;17.30;;
15946;SDS011;8072;52.554;7.966;2024-03-06T11:49:28;36.50;;;17.83;;
15946;SDS011;8072;52.554;7.966;2024-03-06T11:52:05;40.27;;;17.20;;
15946;SDS011;8072;52.554;7.966;2024-03-06T11:54:35;34.87;;;17.57;;
15946;SDS011;8072;52.554;7.966;2024-03-06T11:57:02;37.03;;;17.17;;
15946;SDS011;8072;52.554;7.966;2024-03-06T11:59:30;37.00;;;17.23;;
15946;SDS011;8072;52.554;7.966;2024-03-06T12:01:58;35.90;;;17.93;;
15946;SDS011;8072;52.554;7.966;2024-03-06T12:04:29;33.77;;;17.03;;
15946;SDS011;8072;52.554;7.966;2024-03-06T12:06:56;40.50;;;17.37;;
15946;SDS011;8072;52.554;7.966;2024-03-06T12:09:30;30.47;;;15.63;;
15946;SDS011;8072;52.554;7.966;2024-03-06T12:11:55;38.37;;;18.30;;
15946;SDS011;8072;52.554;7.966;2024-03-06T12:14:25;40.73;;;19.13;;
15946;SDS011;8072;52.554;7.966;2024-03-06T12:17:01;36.07;;;18.17;;
15946;SDS011;8072;52.554;7.966;2024-03-06T12:19:33;36.50;;;17.57;;
15946;SDS011;8072;52.554;7.966;2024-03-06T12:22:03;38.13;;;19.13;;
15946;SDS011;8072;52.554;7.966;2024-03-06T12:24:32;41.43;;;18.97;;
15946;SDS011;8072;52.554;7.966;2024-03-06T12:26:59;37.70;;;19.17;;
15946;SDS011;8072;52.554;7.966;2024-03-06T12:29:29;41.87;;;19.37;;
15946;SDS011;8072;52.554;7.966;2024-03-06T12:31:57;39.73;;;19.13;;
15946;SDS011;8072;52.554;7.966;2024-03-06T12:34:29;38.97;;;19.27;;
15946;SDS011;8072;52.554;7.966;2024-03-06T12:36:56;43.90;;;19.17;;
15946;SDS011;8072;52.554;7.966;2024-03-06T12:39:32;40.80;;;19.37;;
15946;SDS011;8072;52.554;7.966;2024-03-06T12:41:58;43.33;;;19.23;;
15946;SDS011;8072;52.554;7.966;2024-03-06T12:44:24;40.70;;;18.67;;
15946;SDS011;8072;52.554;7.966;2024-03-06T12:46:50;43.40;;;19.83;;
15946;SDS011;8072;52.554;7.966;2024-03-06T12:49:15;39.40;;;19.33;;
15946;SDS011;8072;52.554;7.966;2024-03-06T12:51:43;39.90;;;19.23;;
15946;SDS011;8072;52.554;7.966;2024-03-06T12:54:09;34.13;;;18.17;;
15946;SDS011;8072;52.554;7.966;2024-03-06T12:56:35;37.87;;;18.47;;
15946;SDS011;8072;52.554;7.966;2024-03-06T12:59:01;40.53;;;20.37;;
15946;SDS011;8072;52.554;7.966;2024-03-06T13:01:27;43.57;;;20.77;;
15946;SDS011;8072;52.554;7.966;2024-03-06T13:03:52;41.20;;;18.57;;
15946;SDS011;8072;52.554;7.966;2024-03-06T13:06:18;37.23;;;20.33;;
15946;SDS011;8072;52.554;7.966;2024-03-06T13:08:44;38.63;;;18.90;;
15946;SDS011;8072;52.554;7.966;2024-03-06T13:11:09;42.20;;;19.07;;
15946;SDS011;8072;52.554;7.966;2024-03-06T13:13:35;40.97;;;19.37;;
15946;SDS011;8072;52.554;7.966;2024-03-06T13:16:01;36.67;;;19.27;;
15946;SDS011;8072;52.554;7.966;2024-03-06T13:18:27;36.23;;;18.70;;
15946;SDS011;8072;52.554;7.966;2024-03-06T13:20:53;44.70;;;19.57;;
15946;SDS011;8072;52.554;7.966;2024-03-06T13:23:19;41.10;;;20.10;;
15946;SDS011;8072;52.554;7.966;2024-03-06T13:25:44;40.20;;;20.13;;
15946;SDS011;8072;52.554;7.966;2024-03-06T13:28:11;41.27;;;19.33;;
15946;SDS011;8072;52.554;7.966;2024-03-06T13:30:37;44.67;;;20.30;;
15946;SDS011;8072;52.554;7.966;2024-03-06T13:33:04;42.20;;;19.47;;
15946;SDS011;8072;52.554;7.966;2024-03-06T13:35:30;38.23;;;18.73;;
15946;SDS011;8072;52.554;7.966;2024-03-06T13:37:56;40.00;;;18.80;;
15946;SDS011;8072;52.554;7.966;2024-03-06T13:40:22;39.63;;;20.03;;
15946;SDS011;8072;52.554;7.966;2024-03-06T13:42:48;37.87;;;19.23;;
15946;SDS011;8072;52.554;7.966;2024-03-06T13:45:14;43.60;;;19.40;;
15946;SDS011;8072;52.554;7.966;2024-03-06T13:47:40;42.00;;;20.30;;
15946;SDS011;8072;52.554;7.966;2024-03-06T13:50:08;41.87;;;19.07;;
15946;SDS011;8072;52.554;7.966;2024-03-06T13:52:34;39.77;;;19.87;;
15946;SDS011;8072;52.554;7.966;2024-03-06T13:55:01;40.23;;;18.87;;
15946;SDS011;8072;52.554;7.966;2024-03-06T13:57:29;41.47;;;19.70;;
15946;SDS011;8072;52.554;7.966;2024-03-06T13:59:59;43.53;;;20.17;;
15946;SDS011;8072;52.554;7.966;2024-03-06T14:02:30;38.93;;;19.97;;
15946;SDS011;8072;52.554;7.966;2024-03-06T14:04:56;36.67;;;19.30;;
15946;SDS011;8072;52.554;7.966;2024-03-06T14:07:22;36.30;;;19.67;;
15946;SDS011;8072;52.554;7.966;2024-03-06T14:09:49;39.63;;;20.57;;
15946;SDS011;8072;52.554;7.966;2024-03-06T14:12:17;40.40;;;20.03;;
15946;SDS011;8072;52.554;7.966;2024-03-06T14:14:43;39.27;;;20.07;;
15946;SDS011;8072;52.554;7.966;2024-03-06T14:17:12;37.97;;;19.60;;
15946;SDS011;8072;52.554;7.966;2024-03-06T14:19:38;42.00;;;20.07;;
15946;SDS011;8072;52.554;7.966;2024-03-06T14:22:07;38.87;;;19.43;;
15946;SDS011;8072;52.554;7.966;2024-03-06T14:24:33;41.30;;;20.83;;
15946;SDS011;8072;52.554;7.966;2024-03-06T14:27:00;38.27;;;19.37;;
15946;SDS011;8072;52.554;7.966;2024-03-06T14:29:26;38.83;;;20.27;;
15946;SDS011;8072;52.554;7.966;2024-03-06T14:31:53;38.03;;;19.77;;
15946;SDS011;8072;52.554;7.966;2024-03-06T14:34:19;37.30;;;18.63;;
15946;SDS011;8072;52.554;7.966;2024-03-06T14:36:45;42.33;;;20.43;;
15946;SDS011;8072;52.554;7.966;2024-03-06T14:39:11;37.90;;;20.17;;